Katmai National Park, AK

5:47 AM AKDT on July 10, 2014 (GMT -0800)
King Salmon (PAKN) Elev 46 ft | 58.68 °N, 156.66 °W | Change Station

Current weather conditions updated 53 minutes ago

Light Rain
Light Rain
51 °F
Feels Like 51 °F
N
9
Wind Variable Wind from NNE

Today is forecast to be Cooler than yesterday. Light rain.

Today
High -- | Low -- °F
--% Chance of Precip.
Yesterday
High -- | Low -- °F
Precip. -- in
5:33 AM 11:29 PM
Waxing Gibbous, 95% visible
Pressure 29.67 in
Visibility 10.0 miles
Clouds Overcast 5500 ft
Dew Point 50 °F
Humidity 96%
Rainfall 0.00 in
Snow Depth Not available.
UV 0 out of 12
Pollen Not available.
Air Quality Not available.
Flu Activity Sporadic
METAR PAKN 101254Z 03008KT 10SM -RA OVC055 11/10 A2967 RMK AO2 RAB27 SLP046 P0000 T01060100 $

More Conditions Fewer Conditions

Pressure 29.67 in
Visibility 10.0 miles
Clouds Overcast 5500 ft
Dew Point 50 °F
Humidity 96%
Rainfall 0.00 in
Snow Depth Not available.
UV 0 out of 12
Pollen Not available.
Air Quality Not available.
Flu Activity Sporadic
METAR PAKN 101254Z 03008KT 10SM -RA OVC055 11/10 A2967 RMK AO2 RAB27 SLP046 P0000 T01060100 $

More Conditions Fewer Conditions

10-Day Weather Forecast

Almanac

Astronomy

Jul. 10, 2014 Rise Set
Actual Time 5:33 AM AKDT 11:29 PM AKDT
Civil Twilight 4:21 AM AKDT 12:41 AM AKDT
Nautical Twilight Sun does not rise Sun does not rise
Astronomical Twilight Sun does not rise Sun does not rise
Moon 9:34 PM AKDT 4:14 AM AKDT
Length of Visible Light 20h 19m
Length of Day
17h 55m
Tomorrow will be 2m 52s shorter.
Waxing Gibbous, 95% of the Moon is Illuminated
Today
Waxing Gibbous
Jul 12
Full
Jul 18
Last Quarter
Jul 26
New
Aug 3
First Quarter

Today's Extremes

State Highs State Lows

Community

WunderPhotos

Upload Photos

1,732,141 photos uploaded!

Nearby

Snow Depth

Station Depth Elevation
Port Graham 0 in 300 ft
Mcneil Canyon 1 in 1320 ft
MF Bradley River 22 in 2300 ft
Nuka Glacier 0 in 1250 ft
Cooper Lake 8 in 1200 ft

Earthquake Activity

City Distance Mag. Time & Date
No recent earthquake activity has been reported nearby.
Minimum magnitude displayed is 2.5.

Coastal Water Temperatures

Place Temperature
No Stations Reporting

Nearby Weather Stations

Station Location Temp. Dew Point Humidity Wind Precip. Elev Updated Type
MesoWest LOWER MULCHATNA , South Naknek, AK 50 °F - - North  at  - 0.00 in / hr 319 ft 4:00 AM AKDT MADIS
MARITIME , South Naknek, AK - - - North  at  17 mph 0.00 in / hr 0 ft 5:00 AM AKDT MADIS

Show More Stations Show Fewer Stations